createdAt,value
2019-06-26T00:03:08.249Z,17.17
2019-06-26T00:08:13.202Z,15.70
2019-06-26T00:13:26.001Z,14.90
2019-06-26T00:18:25.727Z,16.43
2019-06-26T00:23:31.091Z,21.90
2019-06-26T00:28:36.244Z,19.23
2019-06-26T00:33:41.494Z,17.90
2019-06-26T00:38:46.732Z,23.03
2019-06-26T00:43:52.211Z,20.97
2019-06-26T00:48:57.486Z,19.07
2019-06-26T00:54:03.450Z,22.60
2019-06-26T00:59:09.793Z,17.43
2019-06-26T01:04:16.504Z,16.73
2019-06-26T01:09:22.914Z,18.00
2019-06-26T01:14:29.552Z,18.57
2019-06-26T01:19:36.485Z,19.47
2019-06-26T01:24:43.127Z,20.27
2019-06-26T01:29:49.583Z,19.77
2019-06-26T01:34:56.969Z,20.83
2019-06-26T01:40:04.718Z,18.17
2019-06-26T01:45:12.886Z,22.40
2019-06-26T01:50:20.798Z,19.00
2019-06-26T01:55:27.220Z,23.63
2019-06-26T02:00:33.890Z,26.07
2019-06-26T02:05:39.264Z,32.17
2019-06-26T02:10:45.647Z,26.03
2019-06-26T02:15:51.406Z,29.20
2019-06-26T02:20:56.770Z,25.83
2019-06-26T02:26:02.263Z,24.77
2019-06-26T02:31:07.305Z,23.40
2019-06-26T02:36:12.453Z,28.03
2019-06-26T02:41:17.927Z,23.13
2019-06-26T02:46:23.254Z,22.27
2019-06-26T02:51:28.306Z,19.77
2019-06-26T02:56:33.786Z,25.60
2019-06-26T03:01:38.733Z,26.97
2019-06-26T03:06:44.070Z,143.83
2019-06-26T03:11:49.463Z,110.10
2019-06-26T03:16:54.806Z,71.93
2019-06-26T03:22:00.231Z,66.60
2019-06-26T03:27:08.927Z,27.93
2019-06-26T03:32:12.540Z,32.23
2019-06-26T03:37:17.913Z,25.97
2019-06-26T03:42:23.229Z,26.80
2019-06-26T03:47:28.604Z,23.10
2019-06-26T03:52:33.967Z,23.00
2019-06-26T03:57:39.311Z,24.67
2019-06-26T04:02:44.687Z,23.97
2019-06-26T04:07:50.520Z,25.10
2019-06-26T04:12:55.681Z,24.33
2019-06-26T04:24:18.877Z,24.13
2019-06-26T04:29:24.499Z,23.63
2019-06-26T04:34:29.666Z,27.17
2019-06-26T04:39:34.863Z,26.60
2019-06-26T04:44:39.964Z,31.93
2019-06-26T04:49:45.169Z,26.40
2019-06-26T04:54:50.178Z,28.70
2019-06-26T04:59:55.396Z,26.63
2019-06-26T05:05:00.513Z,29.17
2019-06-26T05:10:08.302Z,29.97
2019-06-26T05:15:14.415Z,26.30
2019-06-26T05:20:19.652Z,26.67
2019-06-26T05:25:24.747Z,27.63
2019-06-26T05:30:29.861Z,24.47
2019-06-26T05:35:35.459Z,26.73
2019-06-26T05:40:40.871Z,26.57
2019-06-26T05:45:46.478Z,35.13
2019-06-26T05:50:52.736Z,23.13
2019-06-26T05:55:57.867Z,21.65
2019-06-26T06:01:03.177Z,21.45
2019-06-26T06:06:08.255Z,20.97
2019-06-26T06:11:13.483Z,20.75
2019-06-26T06:16:18.405Z,20.32
2019-06-26T06:21:23.284Z,19.35
2019-06-26T06:26:28.709Z,20.05
2019-06-26T06:31:33.828Z,19.62
2019-06-26T06:36:39.000Z,26.23
2019-06-26T06:41:44.126Z,21.12
2019-06-26T06:47:02.738Z,22.60
2019-06-26T06:52:16.780Z,21.23
2019-06-26T06:57:22.260Z,19.40
2019-06-26T07:02:27.470Z,21.25
2019-06-26T07:07:32.708Z,23.07
2019-06-26T07:12:37.777Z,17.48
2019-06-26T07:17:42.750Z,17.67
2019-06-26T07:22:47.859Z,15.38
2019-06-26T07:27:52.782Z,15.95
2019-06-26T07:32:57.731Z,13.58
2019-06-26T07:38:02.901Z,19.55
2019-06-26T07:43:08.123Z,22.07
2019-06-26T07:48:13.265Z,16.07
2019-06-26T07:53:18.455Z,14.43
2019-06-26T07:58:23.659Z,13.78
2019-06-26T08:03:28.987Z,19.95
2019-06-26T08:08:34.227Z,14.43
2019-06-26T08:13:39.387Z,13.20
2019-06-26T08:18:44.428Z,12.88
2019-06-26T08:23:49.375Z,12.15
2019-06-26T08:28:54.497Z,12.78
2019-06-26T08:33:59.701Z,13.65
2019-06-26T08:39:07.014Z,11.03
2019-06-26T08:44:12.311Z,16.10
2019-06-26T08:49:25.344Z,8.53
2019-06-26T08:54:24.467Z,12.70
2019-06-26T08:59:29.449Z,8.75
2019-06-26T09:04:34.707Z,9.20
2019-06-26T09:09:39.809Z,9.43
2019-06-26T09:14:45.048Z,9.03
2019-06-26T09:19:50.021Z,10.43
2019-06-26T09:24:55.356Z,9.70
2019-06-26T09:30:00.265Z,11.57
2019-06-26T09:35:06.428Z,10.13
2019-06-26T09:40:12.177Z,8.95
2019-06-26T09:45:17.495Z,10.43
2019-06-26T09:50:22.879Z,8.18
2019-06-26T09:55:28.150Z,7.45
2019-06-26T10:00:33.242Z,10.65
2019-06-26T10:05:38.427Z,9.78
2019-06-26T10:10:43.585Z,11.93
2019-06-26T10:15:48.723Z,10.20
2019-06-26T10:20:54.143Z,9.48
2019-06-26T10:25:59.119Z,9.48
2019-06-26T10:31:04.450Z,9.10
2019-06-26T10:36:09.774Z,8.68
2019-06-26T10:41:14.904Z,9.40
2019-06-26T10:46:20.195Z,10.28
2019-06-26T10:51:25.465Z,7.97
2019-06-26T10:56:30.459Z,8.50
2019-06-26T11:01:36.166Z,7.75
2019-06-26T11:06:41.714Z,8.20
2019-06-26T11:11:46.752Z,7.80
2019-06-26T11:17:03.446Z,10.25
2019-06-26T11:22:08.358Z,6.72
2019-06-26T11:27:13.498Z,7.97
2019-06-26T11:32:18.890Z,7.60
2019-06-26T11:37:24.198Z,7.33
2019-06-26T11:42:32.641Z,7.87
2019-06-26T11:47:35.965Z,8.53
2019-06-26T11:52:41.105Z,10.20
2019-06-26T11:57:46.359Z,7.35
2019-06-26T12:02:51.725Z,8.35
2019-06-26T12:07:56.997Z,9.53
2019-06-26T12:13:04.221Z,8.70
2019-06-26T12:18:08.953Z,9.15
2019-06-26T12:23:14.271Z,9.90
2019-06-26T12:28:19.503Z,9.43
2019-06-26T12:33:24.611Z,10.08
2019-06-26T12:38:29.996Z,14.47
2019-06-26T12:43:34.943Z,12.53
2019-06-26T12:48:39.871Z,11.93
2019-06-26T12:53:45.326Z,10.43
2019-06-26T12:58:50.284Z,10.32
2019-06-26T13:03:55.196Z,10.85
2019-06-26T13:09:00.471Z,10.30
2019-06-26T13:14:06.138Z,10.50
2019-06-26T13:19:11.068Z,14.63
2019-06-26T13:24:35.253Z,13.13
2019-06-26T13:29:40.448Z,12.13
2019-06-26T13:34:45.613Z,15.23
2019-06-26T13:39:50.762Z,10.72
2019-06-26T13:44:55.701Z,10.58
2019-06-26T13:50:00.624Z,14.20
2019-06-26T13:55:06.826Z,11.08
2019-06-26T14:00:14.037Z,11.68
2019-06-26T14:05:20.101Z,12.47
2019-06-26T14:10:25.775Z,15.50
2019-06-26T14:15:30.857Z,22.42
2019-06-26T14:20:35.817Z,20.90
2019-06-26T14:25:40.755Z,12.47
2019-06-26T14:30:45.941Z,10.55
2019-06-26T14:35:51.257Z,11.40
2019-06-26T14:40:56.517Z,12.68
2019-06-26T14:46:01.743Z,17.07
2019-06-26T14:51:06.941Z,15.35
2019-06-26T14:56:11.883Z,10.58
2019-06-26T15:01:17.245Z,16.73
2019-06-26T15:06:22.215Z,11.97
2019-06-26T15:11:27.564Z,12.43
2019-06-26T15:16:32.469Z,10.68
2019-06-26T15:21:37.563Z,8.43
2019-06-26T15:26:42.834Z,13.15
2019-06-26T15:31:47.934Z,37.58
2019-06-26T15:36:53.233Z,15.83
2019-06-26T15:41:58.190Z,10.82
2019-06-26T15:47:03.179Z,9.93
2019-06-26T15:52:15.164Z,17.82
2019-06-26T15:57:15.049Z,31.57
2019-06-26T16:02:20.431Z,21.25
2019-06-26T16:07:25.831Z,14.78
2019-06-26T16:12:30.923Z,9.25
2019-06-26T16:17:40.590Z,72.30
2019-06-26T16:22:45.831Z,15.05
2019-06-26T16:28:04.355Z,9.53
2019-06-26T16:32:57.869Z,13.65
2019-06-26T16:38:03.130Z,10.05
2019-06-26T16:43:08.328Z,9.35
2019-06-26T16:48:13.685Z,13.68
2019-06-26T16:53:18.627Z,10.15
2019-06-26T16:58:23.740Z,8.25
2019-06-26T17:03:29.019Z,32.55
2019-06-26T17:08:34.405Z,33.92
2019-06-26T17:13:39.878Z,8.35
2019-06-26T17:18:45.489Z,10.05
2019-06-26T17:23:50.905Z,8.60
2019-06-26T17:28:56.415Z,8.43
2019-06-26T17:34:01.935Z,10.50
2019-06-26T17:39:07.776Z,16.37
2019-06-26T17:44:13.003Z,10.10
2019-06-26T17:49:18.684Z,17.75
2019-06-26T17:54:23.860Z,12.50
2019-06-26T17:59:29.019Z,25.37
2019-06-26T18:04:34.777Z,34.20
2019-06-26T18:09:40.249Z,23.22
2019-06-26T18:14:46.002Z,24.50
2019-06-26T18:19:53.932Z,11.53
2019-06-26T18:24:58.948Z,12.95
2019-06-26T18:30:06.252Z,16.62
2019-06-26T18:35:11.821Z,12.23
2019-06-26T18:40:18.425Z,10.68
2019-06-26T18:45:23.947Z,30.52
2019-06-26T18:50:29.980Z,18.27
2019-06-26T18:55:35.979Z,17.48
2019-06-26T19:00:42.380Z,14.60
2019-06-26T19:05:47.908Z,16.10
2019-06-26T19:10:53.581Z,10.80
2019-06-26T19:15:59.103Z,21.48
2019-06-26T19:21:05.334Z,88.58
2019-06-26T19:26:11.572Z,28.80
2019-06-26T19:31:20.060Z,24.82
2019-06-26T19:36:28.560Z,26.65
2019-06-26T19:41:33.508Z,12.23
2019-06-26T19:46:41.917Z,15.43
2019-06-26T19:51:46.381Z,12.47
2019-06-26T19:56:52.219Z,11.35
2019-06-26T20:01:57.681Z,10.58
2019-06-26T20:07:03.173Z,11.35
2019-06-26T20:12:09.011Z,10.03
2019-06-26T20:23:33.357Z,10.53
2019-06-26T20:28:38.811Z,10.88
2019-06-26T20:33:43.943Z,14.35
2019-06-26T20:38:49.546Z,10.40
2019-06-26T20:43:55.303Z,10.30
2019-06-26T20:49:02.387Z,9.23
2019-06-26T20:54:07.913Z,9.75
2019-06-26T20:59:13.143Z,9.30
2019-06-26T21:04:19.264Z,12.28
2019-06-26T21:09:24.864Z,11.12
2019-06-26T21:14:30.143Z,11.10
2019-06-26T21:19:35.664Z,10.88
2019-06-26T21:24:41.264Z,12.13
2019-06-26T21:29:46.309Z,11.73
2019-06-26T21:34:51.293Z,12.23
2019-06-26T21:39:56.804Z,12.43
2019-06-26T21:45:02.741Z,11.80
2019-06-26T21:50:08.407Z,13.05
2019-06-26T21:55:14.048Z,13.80
2019-06-26T22:00:21.055Z,16.65
2019-06-26T22:05:27.517Z,14.73
2019-06-26T22:10:32.849Z,15.47
2019-06-26T22:15:38.126Z,15.37
2019-06-26T22:20:43.468Z,15.50
2019-06-26T22:25:51.193Z,15.50
2019-06-26T22:30:55.759Z,16.00
2019-06-26T22:36:01.358Z,15.93
2019-06-26T22:41:06.938Z,16.87
2019-06-26T22:46:12.497Z,15.87
2019-06-26T22:51:18.339Z,15.77
2019-06-26T22:56:23.895Z,15.17
2019-06-26T23:01:29.454Z,15.37
2019-06-26T23:06:37.429Z,14.00
2019-06-26T23:11:42.325Z,14.33
2019-06-26T23:16:48.090Z,15.20
2019-06-26T23:21:53.525Z,15.77
2019-06-26T23:26:59.025Z,15.83
2019-06-26T23:32:04.362Z,15.57
2019-06-26T23:37:09.673Z,17.33
2019-06-26T23:42:15.158Z,15.77
2019-06-26T23:47:20.498Z,16.47
2019-06-26T23:52:25.777Z,15.83
2019-06-26T23:57:31.072Z,14.90
